Map

Track Data

SID SEASON NUMBER BASIN SUBBASIN NAME ISO_TIME NATURE LAT LON WMO_WIND WMO_PRES WMO_AGENCY TRACK_TYPE DIST2LAND LANDFALL IFLAG USA_AGENCY USA_ATCF_ID USA_LAT USA_LON USA_RECORD USA_STATUS USA_WIND USA_PRES USA_SSHS USA_R34_NE USA_R34_SE USA_R34_SW USA_R34_NW USA_R50_NE USA_R50_SE USA_R50_SW USA_R50_NW USA_R64_NE USA_R64_SE USA_R64_SW USA_R64_NW USA_POCI USA_ROCI USA_RMW USA_EYE TOKYO_LAT TOKYO_LON TOKYO_GRADE TOKYO_WIND TOKYO_PRES TOKYO_R50_DIR TOKYO_R50_LONG TOKYO_R50_SHORT TOKYO_R30_DIR TOKYO_R30_LONG TOKYO_R30_SHORT TOKYO_LAND CMA_LAT CMA_LON CMA_CAT CMA_WIND CMA_PRES HKO_LAT HKO_LON HKO_CAT HKO_WIND HKO_PRES NEWDELHI_LAT NEWDELHI_LON NEWDELHI_GRADE NEWDELHI_WIND NEWDELHI_PRES NEWDELHI_CI NEWDELHI_DP NEWDELHI_POCI REUNION_LAT REUNION_LON REUNION_TYPE REUNION_WIND REUNION_PRES REUNION_TNUM REUNION_CI REUNION_RMW REUNION_R34_NE REUNION_R34_SE REUNION_R34_SW REUNION_R34_NW REUNION_R50_NE REUNION_R50_SE REUNION_R50_SW REUNION_R50_NW REUNION_R64_NE REUNION_R64_SE REUNION_R64_SW REUNION_R64_NW BOM_LAT BOM_LON BOM_TYPE BOM_WIND BOM_PRES BOM_TNUM BOM_CI BOM_RMW BOM_R34_NE BOM_R34_SE BOM_R34_SW BOM_R34_NW BOM_R50_NE BOM_R50_SE BOM_R50_SW BOM_R50_NW BOM_R64_NE BOM_R64_SE BOM_R64_SW BOM_R64_NW BOM_ROCI BOM_POCI BOM_EYE BOM_POS_METHOD BOM_PRES_METHOD NADI_LAT NADI_LON NADI_CAT NADI_WIND NADI_PRES WELLINGTON_LAT WELLINGTON_LON WELLINGTON_WIND WELLINGTON_PRES DS824_LAT DS824_LON DS824_STAGE DS824_WIND DS824_PRES TD9636_LAT TD9636_LON TD9636_STAGE TD9636_WIND TD9636_PRES TD9635_LAT TD9635_LON TD9635_WIND TD9635_PRES TD9635_ROCI NEUMANN_LAT NEUMANN_LON NEUMANN_CLASS NEUMANN_WIND NEUMANN_PRES MLC_LAT MLC_LON MLC_CLASS MLC_WIND MLC_PRES USA_GUST BOM_GUST BOM_GUST_PER REUNION_GUST REUNION_GUST_PER USA_SEAHGT USA_SEARAD_NE USA_SEARAD_SE USA_SEARAD_SW USA_SEARAD_NW STORM_SPEED STORM_DIR
2021095S15105 2021 22 SI WA ODETTE 2021-04-04 18:00:00 NR -14.9000 104.800 PROVISIONAL 857 857 O_____________ tcvightals SI272021 -14.9000 104.800 35 1000 0 45 40 1007 180 45 4 162
2021095S15105 2021 22 SI WA ODETTE 2021-04-04 21:00:00 NR -15.1125 104.870 PROVISIONAL 877 877 P_____________ SI272021 -15.1125 104.870 35 999 0 60 40 1007 185 47 4 167
2021095S15105 2021 22 SI WA ODETTE 2021-04-05 00:00:00 NR -15.3000 104.900 PROVISIONAL 899 899 O_____________ tcvightals SI272021 -15.3000 104.900 35 998 0 50 75 40 1007 190 50 3 177
2021095S15105 2021 22 SI WA ODETTE 2021-04-05 03:00:00 NR -15.4500 104.878 PROVISIONAL 910 910 P_____________ SI272021 -15.4500 104.878 40 997 0 60 90 57 1007 190 50 3 0
2021095S15105 2021 22 SI WA ODETTE 2021-04-05 06:00:00 NR -15.6000 104.900 PROVISIONAL 932 932 O_____________ tcvightals SI272021 -15.6000 104.900 45 997 0 70 105 75 45 1007 190 50 4 151
2021095S15105 2021 22 SI WA ODETTE 2021-04-05 09:00:00 NR -15.8076 105.085 PROVISIONAL 951 951 P_____________ SI272021 -15.8076 105.085 45 997 0 70 102 77 45 1007 207 55 6 136
2021095S15105 2021 22 SI WA ODETTE 2021-04-05 12:00:00 NR -16.0000 105.300 PROVISIONAL 968 965 O_____________ tcvightals SI272021 -16.0000 105.300 45 998 0 70 100 80 45 1008 225 60 5 133
2021095S15105 2021 22 SI WA ODETTE 2021-04-05 15:00:00 NR -16.1225 105.438 PROVISIONAL 976 973 P_____________ SI272021 -16.1225 105.438 42 998 0 77 102 87 52 1008 225 52 3 136
2021095S15105 2021 22 SI WA ODETTE 2021-04-05 18:00:00 NR -16.2000 105.500 PROVISIONAL 984 984 O_____________ tcvightals SI272021 -16.2000 105.500 39 999 0 85 105 95 60 1008 225 45 2 0
2021095S15105 2021 22 SI WA ODETTE 2021-04-05 21:00:00 NR -16.2725 105.435 PROVISIONAL 997 997 P_____________ SI272021 -16.2725 105.435 39 999 0 85 105 95 60 1008 225 45 1 223
2021095S15105 2021 22 SI WA ODETTE 2021-04-06 00:00:00 NR -16.3000 105.400 PROVISIONAL 997 981 O_____________ tcvightals SI272021 -16.3000 105.400 39 999 0 85 105 95 60 1008 225 45 1 78
2021095S15105 2021 22 SI WA ODETTE 2021-04-06 03:00:00 NR -16.2463 105.565 PROVISIONAL 981 976 P_____________ SI272021 -16.2463 105.565 39 998 0 85 105 95 70 1007 227 45 4 75
2021095S15105 2021 22 SI WA ODETTE 2021-04-06 06:00:00 NR -16.2000 105.800 PROVISIONAL 976 971 O_____________ tcvightals SI272021 -16.2000 105.800 39 997 0 85 105 95 80 1006 230 45 4 91
2021095S15105 2021 22 SI WA ODETTE 2021-04-06 09:00:00 NR -16.2562 106.012 PROVISIONAL 982 978 P_____________ SI272021 -16.2562 106.012 38 997 0 4 113
2021095S15105 2021 22 SI WA ODETTE 2021-04-06 12:00:00 NR -16.3499 106.169 PROVISIONAL 978 978 I_____________ tcvightals SI272021 -16.3499 106.169 37 998 0 3 130
2021095S15105 2021 22 SI WA ODETTE 2021-04-06 15:00:00 NR -16.4436 106.249 PROVISIONAL 989 987 P_____________ SI272021 -16.4436 106.249 36 998 0 2 168
2021095S15105 2021 22 SI WA ODETTE 2021-04-06 18:00:00 NR -16.5000 106.200 PROVISIONAL 1000 1000 O_____________ tcvightals SI272021 -16.5000 106.200 35 999 0 85 110 95 85 1006 230 45 3 260
2021095S15105 2021 22 SI WA ODETTE 2021-04-06 21:00:00 NR -16.4914 105.952 PROVISIONAL 1004 998 P_____________ SI272021 -16.4914 105.952 37 997 0 75 112 100 77 1006 230 45 5 282
2021095S15105 2021 22 SI WA ODETTE 2021-04-07 00:00:00 NR -16.4000 105.700 PROVISIONAL 1000 981 O_____________ tcvightals SI272021 -16.4000 105.700 39 996 0 65 115 105 70 1006 230 45 4 315
2021095S15105 2021 22 SI WA ODETTE 2021-04-07 03:00:00 NR -16.1774 105.625 PROVISIONAL 981 957 P_____________ SI272021 -16.1774 105.625 39 995 0 72 122 97 70 1005 217 40 4 0
2021095S15105 2021 22 SI WA ODETTE 2021-04-07 06:00:00 NR -16.0000 105.700 PROVISIONAL 957 952 O_____________ tcvightals SI272021 -16.0000 105.700 39 995 0 80 130 90 70 1005 205 35 3 72
2021095S15105 2021 22 SI WA ODETTE 2021-04-07 09:00:00 NR -16.0702 105.965 PROVISIONAL 960 958 P_____________ SI272021 -16.0702 105.965 39 995 0 75 110 80 60 1005 202 35 5 113
2021095S15105 2021 22 SI WA ODETTE 2021-04-07 12:00:00 NR -16.2000 106.200 PROVISIONAL 967 967 O_____________ tcvightals SI272021 -16.2000 106.200 39 996 0 70 90 70 50 1005 200 35 2 137
2021095S15105 2021 22 SI WA ODETTE 2021-04-07 15:00:00 NR -16.2300 106.123 PROVISIONAL 969 969 P_____________ SI272021 -16.2300 106.123 39 995 0 90 1005 200 35 2 270
2021095S15105 2021 22 SI WA ODETTE 2021-04-07 18:00:00 NR -16.2000 106.000 PROVISIONAL 971 958 O_____________ tcvightals SI272021 -16.2000 106.000 39 994 0 110 1005 200 35 1 0
2021095S15105 2021 22 SI WA ODETTE 2021-04-07 21:00:00 NR -16.1300 106.130 PROVISIONAL 958 945 P_____________ SI272021 -16.1300 106.130 39 993 0 92 1005 200 32 3 44
2021095S15105 2021 22 SI WA ODETTE 2021-04-08 00:00:00 NR -16.0000 106.200 PROVISIONAL 945 930 O_____________ tcvightals SI272021 -16.0000 106.200 39 993 0 65 70 75 65 1005 200 30 4 325
2021095S15105 2021 22 SI WA ODETTE 2021-04-08 03:00:00 NR -15.8302 105.907 PROVISIONAL 930 916 P_____________ SI272021 -15.8302 105.907 37 996 0 65 57 67 75 1005 200 30 7 305
2021095S15105 2021 22 SI WA ODETTE 2021-04-08 06:00:00 NR -15.6000 105.600 PROVISIONAL 916 884 O_____________ tcvightals SI272021 -15.6000 105.600 35 999 0 65 45 60 85 1005 200 30 6 327
2021095S15105 2021 22 SI WA ODETTE 2021-04-08 09:00:00 NR -15.3224 105.560 PROVISIONAL 884 848 P_____________ SI272021 -15.3224 105.560 35 999 0 60 40 57 67 1004 177 37 6 9
2021095S15105 2021 22 SI WA ODETTE 2021-04-08 12:00:00 NR -15.0000 105.700 PROVISIONAL 848 800 O_____________ tcvightals SI272021 -15.0000 105.700 35 999 0 55 35 55 50 1004 155 45 8 25
2021095S15105 2021 22 SI WA ODETTE 2021-04-08 15:00:00 NR -14.6052 105.913 PROVISIONAL 800 757 P_____________ SI272021 -14.6052 105.913 37 996 0 42 40 52 55 1002 117 45 9 40
2021095S15105 2021 22 SI WA ODETTE 2021-04-08 18:00:00 NR -14.3000 106.300 PROVISIONAL 757 736 O_____________ tcvightals SI272021 -14.3000 106.300 39 994 0 30 45 50 60 1001 80 45 10 66
2021095S15105 2021 22 SI WA ODETTE 2021-04-08 21:00:00 NR -14.1990 106.854 PROVISIONAL 734 725 P_____________ SI272021 -14.1990 106.854 42 993 0 12 90
2021095S15105 2021 22 SI WA ODETTE 2021-04-09 00:00:00 NR -14.2941 107.563 PROVISIONAL 733 730 I_____________ tcvightals SI272021 -14.2940 107.563 45 992 0 15 103
2021095S15105 2021 22 SI WA ODETTE 2021-04-09 03:00:00 NR -14.5383 108.345 PROVISIONAL 750 750 P_____________ SI272021 -14.5383 108.345 48 991 0 17 111
2021095S15105 2021 22 SI WA ODETTE 2021-04-09 06:00:00 NR -14.9000 109.200 PROVISIONAL 767 765 O_____________ tcvightals SI272021 -14.9000 109.200 51 990 0 55 115 50 65 1001 75 20 18 112
2021095S15105 2021 22 SI WA ODETTE 2021-04-09 09:00:00 NR -15.2342 110.097 PROVISIONAL 781 776 P_____________ SI272021 -15.2342 110.097 48 991 0 19 115
2021095S15105 2021 22 SI WA ODETTE 2021-04-09 12:00:00 NR -15.6759 110.949 PROVISIONAL 766 685 I_____________ tcvightals SI272021 -15.6759 110.949 45 992 0 18 125
2021095S15105 2021 22 SI WA ODETTE 2021-04-09 15:00:00 NR -16.2875 111.666 PROVISIONAL 671 576 P_____________ SI272021 -16.2875 111.666 42 993 0 19 136
2021095S15105 2021 22 SI WA ODETTE 2021-04-09 18:00:00 NR -17.0000 112.300 PROVISIONAL 576 O_____________ tcvightals SI272021 -17.0000 112.300 39 994 0 70 65 135 65 1000 75 25 19 140

About IBTrACS Database

This database is a web-friendly format of International Best Track Archive for Climate Stewardship (IBTrACS), a global best track data archive curated by NOAA dating back to 1842.

Updated: 2021-05-04